Time;durP1;ratioP1;P1;durP2;ratioP2;P2;SDS_P1;SDS_P2;PMS_P1;PMS_P2;Temp;Humidity;BMP_temperature;BMP_pressure;BME280_temperature;BME280_humidity;BME280_pressure;Samples;Min_cycle;Max_cycle;Signal;HPM_P1;HPM_P2
2021/05/26 00:01:38;;;;;;;;;;;;;;;20.41;66.05;100748.63;5074417;28;1752;-48
2021/05/26 00:04:08;;;;;;;;;;;;;;;20.37;67.14;100741.84;5073913;28;1877;-47
2021/05/26 00:06:38;;;;;;;;;;;;;;;20.33;67.63;100735.91;5079143;28;1914;-47
2021/05/26 00:09:04;;;;;;;;;;;;;;;20.31;68.66;100753.19;5081822;28;2116;-48
2021/05/26 00:11:33;;;;;;;;;;;;;;;20.29;70.18;100758.69;5079743;28;1430;-47
2021/05/26 00:14:00;;;;;;;;;;;;;;;20.33;68.68;100752.03;5094109;28;1753;-48
2021/05/26 00:16:30;;;;;;;;;;;;;;;20.38;66.73;100765.06;5061466;28;1609;-47
2021/05/26 00:19:00;;;;;;;;;;;;;;;20.37;66.35;100763.34;5078915;28;1467;-48
2021/05/26 00:21:35;;;;;;;;;;;;;;;20.34;70.55;100758.28;5069204;28;1472;-47
2021/05/26 00:24:04;;;;;;;;;;;;;;;20.26;68.71;100746.41;5064415;28;1611;-48
2021/05/26 00:26:31;;;;;;;;;;;;;;;20.27;70.26;100747.25;5064085;28;2045;-48
2021/05/26 00:29:00;;;;;;;;;;;;;;;20.25;69.96;100759.97;5063919;28;1358;-48
2021/05/26 00:31:27;;;;;;;;;;;;;;;20.30;69.58;100764.94;5064510;28;1473;-48
2021/05/26 00:33:53;;;;;;;;;;;;;;;20.25;69.12;100766.22;5060090;28;1472;-48
2021/05/26 00:36:22;;;;;;;;;;;;;;;20.24;69.65;100753.75;5064656;28;1530;-49
2021/05/26 00:38:52;;;;;;;;;;;;;;;20.25;69.31;100755.47;5070016;28;1438;-48
2021/05/26 00:41:19;;;;;;;;;;;;;;;20.26;68.81;100757.16;5075513;28;1831;-47
2021/05/26 00:43:53;;;;;;;;;;;;;;;20.27;68.43;100764.22;5089177;28;1638;-48
2021/05/26 00:46:19;;;;;;;;;;;;;;;20.25;67.68;100754.59;5079381;28;1906;-49
2021/05/26 00:48:45;;;;;;;;;;;;;;;20.25;67.60;100752.78;5066102;28;1464;-48
2021/05/26 00:51:14;;;;;;;;;;;;;;;20.24;67.99;100745.69;5071849;28;1696;-47
2021/05/26 00:53:43;;;;;;;;;;;;;;;20.23;67.40;100746.72;5077959;28;1498;-47
2021/05/26 00:56:10;;;;;;;;;;;;;;;20.25;67.29;100752.78;5068693;28;1747;-49
2021/05/26 00:58:40;;;;;;;;;;;;;;;20.23;68.25;100765.50;5066794;28;1447;-48
2021/05/26 01:01:06;;;;;;;;;;;;;;;20.23;68.19;100762.81;5062013;28;1300;-48
2021/05/26 01:03:33;;;;;;;;;;;;;;;20.20;68.12;100765.78;5072020;28;2046;-48
2021/05/26 01:05:59;;;;;;;;;;;;;;;20.21;68.21;100761.25;5067369;28;1967;-48
2021/05/26 01:08:25;;;;;;;;;;;;;;;20.20;68.97;100763.09;5076726;28;1798;-48
2021/05/26 01:13:34;;;;;;;;;;;;;;;20.21;68.28;100770.16;5080136;28;1798;-47
2021/05/26 01:16:02;;;;;;;;;;;;;;;20.19;68.44;100758.72;5072524;28;1790;-48
2021/05/26 01:18:29;;;;;;;;;;;;;;;20.18;68.28;100759.72;5065583;28;1575;-48
2021/05/26 01:21:04;;;;;;;;;;;;;;;20.20;68.38;100763.09;5065706;28;1432;-48
2021/05/26 01:23:31;;;;;;;;;;;;;;;20.19;68.66;100763.22;5063264;28;1461;-48
2021/05/26 01:25:59;;;;;;;;;;;;;;;20.18;68.19;100765.06;5064576;28;1918;-48
2021/05/26 01:28:26;;;;;;;;;;;;;;;20.16;69.01;100767.06;5070286;28;1689;-48
2021/05/26 01:30:52;;;;;;;;;;;;;;;20.18;68.25;100754.34;5074965;28;1497;-47
2021/05/26 01:33:19;;;;;;;;;;;;;;;20.16;68.18;100759.00;5071412;28;1568;-48
2021/05/26 01:35:46;;;;;;;;;;;;;;;20.16;68.21;100767.06;5074421;28;1537;-48
2021/05/26 01:38:12;;;;;;;;;;;;;;;20.17;68.08;100757.16;5072468;28;1660;-48
2021/05/26 01:40:39;;;;;;;;;;;;;;;20.15;68.31;100759.97;5070545;28;1470;-49
2021/05/26 01:43:05;;;;;;;;;;;;;;;20.16;68.00;100750.94;5080615;28;1586;-48
2021/05/26 01:45:31;;;;;;;;;;;;;;;20.16;69.15;100752.78;5084265;28;1910;-48
2021/05/26 01:47:57;;;;;;;;;;;;;;;20.15;68.50;100756.44;5072144;28;1555;-48
2021/05/26 01:50:23;;;;;;;;;;;;;;;20.13;68.01;100753.91;5072081;28;1561;-47
2021/05/26 01:52:51;;;;;;;;;;;;;;;20.12;67.97;100760.28;5063727;28;1438;-48
2021/05/26 01:55:17;;;;;;;;;;;;;;;20.12;68.23;100754.91;5069836;28;1450;-48
2021/05/26 01:57:45;;;;;;;;;;;;;;;20.16;68.80;100782.31;5070208;28;1402;-48
2021/05/26 02:02:46;;;;;;;;;;;;;;;20.16;67.72;100782.31;4329738;26;1919;-78
2021/05/26 02:05:14;;;;;;;;;;;;;;;20.17;68.39;100795.59;5063892;22;3638;-48
2021/05/26 02:07:44;;;;;;;;;;;;;;;20.15;68.43;100797.56;5041490;28;1879;-47
2021/05/26 02:10:11;;;;;;;;;;;;;;;20.15;67.60;100792.19;5052342;28;1468;-48
2021/05/26 02:12:37;;;;;;;;;;;;;;;20.16;67.57;100787.69;5073191;28;1777;-48
2021/05/26 02:15:11;;;;;;;;;;;;;;;20.15;67.14;100797.56;5061038;28;1693;-48
2021/05/26 02:17:38;;;;;;;;;;;;;;;20.13;67.94;100794.19;5051110;28;1602;-48
2021/05/26 02:20:05;;;;;;;;;;;;;;;20.15;68.23;100812.84;5050543;28;1555;-48
2021/05/26 02:22:32;;;;;;;;;;;;;;;20.14;67.71;100803.94;5063828;28;1567;-48
2021/05/26 02:25:00;;;;;;;;;;;;;;;20.12;67.98;100813.97;5050579;28;1755;-48
2021/05/26 02:27:26;;;;;;;;;;;;;;;20.13;66.92;100812.97;5065791;28;1977;-48
2021/05/26 02:29:52;;;;;;;;;;;;;;;20.13;67.75;100814.81;5060240;28;1741;-48
2021/05/26 02:32:20;;;;;;;;;;;;;;;20.12;66.75;100813.13;5053667;28;1416;-49
2021/05/26 02:34:46;;;;;;;;;;;;;;;20.11;67.54;100817.63;5056284;28;1447;-49
2021/05/26 02:37:21;;;;;;;;;;;;;;;20.11;68.93;100816.78;5053348;28;2059;-47
2021/05/26 02:39:48;;;;;;;;;;;;;;;20.09;70.10;100824.97;5058290;28;1849;-48
2021/05/26 02:42:16;;;;;;;;;;;;;;;20.09;68.90;100830.34;5056733;28;1454;-48
2021/05/26 02:44:47;;;;;;;;;;;;;;;20.09;67.65;100827.66;5051032;28;1464;-47
2021/05/26 02:47:15;;;;;;;;;;;;;;;20.08;69.29;100834.03;5054842;28;1997;-48
2021/05/26 02:49:44;;;;;;;;;;;;;;;20.07;68.38;100826.97;5060766;28;1217;-48
2021/05/26 02:52:13;;;;;;;;;;;;;;;20.10;67.89;100836.59;5059024;28;1812;-47
2021/05/26 02:54:42;;;;;;;;;;;;;;;20.09;69.01;100837.56;5069843;28;1993;-49
2021/05/26 02:57:08;;;;;;;;;;;;;;;20.08;67.21;100850.16;5057252;28;1370;-49
2021/05/26 02:59:34;;;;;;;;;;;;;;;20.09;67.65;100841.09;5053510;28;1377;-48
2021/05/26 03:02:04;;;;;;;;;;;;;;;20.08;68.09;100855.53;5034620;28;1486;-48
2021/05/26 03:04:31;;;;;;;;;;;;;;;20.08;68.07;100855.53;5048005;28;1718;-48
2021/05/26 03:07:00;;;;;;;;;;;;;;;20.09;67.94;100865.25;5066886;28;1910;-50
2021/05/26 03:09:30;;;;;;;;;;;;;;;20.05;68.14;100866.53;5054646;28;1646;-48
2021/05/26 03:11:57;;;;;;;;;;;;;;;20.08;67.87;100877.00;5051848;28;1871;-48
2021/05/26 03:14:24;;;;;;;;;;;;;;;20.06;68.40;100871.75;5053859;28;1019;-48
2021/05/26 03:16:53;;;;;;;;;;;;;;;20.08;68.80;100868.09;5051370;28;1940;-48
2021/05/26 03:19:28;;;;;;;;;;;;;;;20.04;67.25;100880.94;5068234;28;1990;-48
2021/05/26 03:24:36;;;;;;;;;;;;;;;20.08;67.76;100881.53;5034226;28;1911;-47
2021/05/26 03:27:05;;;;;;;;;;;;;;;20.11;68.10;100876.69;5061191;28;1887;-47
2021/05/26 03:29:32;;;;;;;;;;;;;;;20.09;67.75;100878.69;5072750;28;1702;-48
2021/05/26 03:31:59;;;;;;;;;;;;;;;20.09;67.08;100878.69;5052753;28;935;-49
2021/05/26 03:34:29;;;;;;;;;;;;;;;20.12;67.82;100882.94;5047801;28;2060;-48
2021/05/26 03:37:02;;;;;;;;;;;;;;;20.14;67.00;100878.28;5060367;28;1922;-48
2021/05/26 03:39:29;;;;;;;;;;;;;;;20.13;67.32;100885.47;5041290;28;2030;-48
2021/05/26 03:41:58;;;;;;;;;;;;;;;20.13;67.72;100885.47;5059245;28;1486;-48
2021/05/26 03:44:33;;;;;;;;;;;;;;;20.14;67.24;100887.16;5059473;28;2060;-48
2021/05/26 03:46:59;;;;;;;;;;;;;;;20.16;66.99;100890.56;5051995;28;1922;-49
2021/05/26 03:52:07;;;;;;;;;;;;;;;20.21;67.82;100888.31;5033317;28;1934;-48
2021/05/26 03:54:34;;;;;;;;;;;;;;;20.20;67.15;100881.25;5058664;28;1492;-48
2021/05/26 03:57:12;;;;;;;;;;;;;;;20.23;67.95;100880.09;5047320;28;1892;-48
2021/05/26 03:59:42;;;;;;;;;;;;;;;20.24;67.79;100874.59;5052604;28;2303;-48
2021/05/26 04:02:11;;;;;;;;;;;;;;;20.24;68.03;100882.66;5073323;28;1489;-47
2021/05/26 04:04:41;;;;;;;;;;;;;;;20.27;70.69;100887.75;5059010;28;1374;-48
2021/05/26 04:07:08;;;;;;;;;;;;;;;20.28;71.44;100888.59;5056301;28;1974;-48
2021/05/26 04:09:39;;;;;;;;;;;;;;;20.31;67.83;100892.81;5064045;28;1263;-47
2021/05/26 04:12:24;;;;;;;;;;;;;;;20.34;70.99;100887.19;5052984;28;1597;-48
2021/05/26 04:14:56;;;;;;;;;;;;;;;20.37;71.09;100890.44;5065414;28;1690;-47
2021/05/26 04:17:23;;;;;;;;;;;;;;;20.48;70.42;100877.84;5056072;28;1630;-48
2021/05/26 04:19:49;;;;;;;;;;;;;;;20.61;68.11;100895.41;5047507;28;1672;-48
2021/05/26 04:22:18;;;;;;;;;;;;;;;20.63;67.72;100900.63;5053849;28;1053;-47
2021/05/26 04:24:45;;;;;;;;;;;;;;;20.65;69.01;100896.81;5034139;28;1841;-48
2021/05/26 04:27:12;;;;;;;;;;;;;;;20.69;69.67;100907.25;5041489;28;1928;-48
2021/05/26 04:29:38;;;;;;;;;;;;;;;20.71;69.09;100908.84;5051637;28;1621;-48
2021/05/26 04:32:09;;;;;;;;;;;;;;;20.74;69.07;100913.06;5040266;28;1013;-48
2021/05/26 04:34:39;;;;;;;;;;;;;;;20.77;69.39;100918.13;5045441;28;1406;-49
2021/05/26 04:37:06;;;;;;;;;;;;;;;20.79;70.58;100926.91;5048587;28;1529;-49
2021/05/26 04:39:34;;;;;;;;;;;;;;;20.79;69.63;100934.97;5046971;28;1654;-48
2021/05/26 04:42:04;;;;;;;;;;;;;;;20.79;69.92;100945.72;5047101;28;2125;-48
2021/05/26 04:44:32;;;;;;;;;;;;;;;20.81;68.95;100949.09;5052637;28;1707;-48
2021/05/26 04:47:02;;;;;;;;;;;;;;;20.79;68.88;100943.91;5046462;28;1963;-48
2021/05/26 04:49:33;;;;;;;;;;;;;;;20.82;69.10;100923.94;5052173;28;1626;-49
2021/05/26 04:52:00;;;;;;;;;;;;;;;20.83;69.38;100963.25;5056331;28;1717;-49
2021/05/26 04:54:30;;;;;;;;;;;;;;;20.87;68.78;100967.38;5043273;28;1735;-49
2021/05/26 04:56:57;;;;;;;;;;;;;;;20.87;69.53;100964.69;5042859;28;1600;-48
2021/05/26 04:59:24;;;;;;;;;;;;;;;20.89;69.03;100964.53;5043783;28;1473;-47
2021/05/26 05:01:53;;;;;;;;;;;;;;;20.85;69.11;100962.13;5049656;28;1986;-48
2021/05/26 05:04:19;;;;;;;;;;;;;;;20.89;68.69;100968.09;5048831;28;1581;-50
2021/05/26 05:06:46;;;;;;;;;;;;;;;20.88;69.29;100961.00;5043926;28;1910;-48
2021/05/26 05:09:15;;;;;;;;;;;;;;;21.01;68.74;100976.84;5059231;28;1399;-48
2021/05/26 05:11:45;;;;;;;;;;;;;;;20.95;69.73;100969.31;5047967;28;1576;-48
2021/05/26 05:14:19;;;;;;;;;;;;;;;20.88;70.96;100971.75;5038886;28;2670;-48
2021/05/26 05:19:27;;;;;;;;;;;;;;;20.91;71.19;100973.28;5052565;28;2479;-48
2021/05/26 05:21:55;;;;;;;;;;;;;;;20.92;71.54;100975.84;5052930;28;1474;-49
2021/05/26 05:24:25;;;;;;;;;;;;;;;21.21;70.17;100975.81;5051070;28;1452;-47
2021/05/26 05:26:52;;;;;;;;;;;;;;;21.05;71.34;100989.00;5037893;28;2095;-48
2021/05/26 05:29:18;;;;;;;;;;;;;;;21.09;71.22;100982.34;5039341;28;1613;-47
2021/05/26 05:31:45;;;;;;;;;;;;;;;21.08;72.04;100995.94;5050013;28;1662;-48
2021/05/26 05:34:13;;;;;;;;;;;;;;;21.08;72.34;100995.94;5042897;28;2620;-49
2021/05/26 05:36:52;;;;;;;;;;;;;;;20.97;72.36;100980.78;5050127;28;1400;-48
2021/05/26 05:39:23;;;;;;;;;;;;;;;20.93;73.78;100996.38;5050234;28;1586;-47
2021/05/26 05:41:49;;;;;;;;;;;;;;;20.97;73.81;101003.16;5046145;28;1753;-49
2021/05/26 05:44:25;;;;;;;;;;;;;;;20.93;73.17;101017.88;5048924;28;1528;-48
2021/05/26 05:46:54;;;;;;;;;;;;;;;20.90;75.12;101007.41;5031970;28;10844;-47
2021/05/26 05:49:20;;;;;;;;;;;;;;;20.90;74.20;100996.66;5072845;28;1803;-48
2021/05/26 05:51:47;;;;;;;;;;;;;;;21.01;73.51;101009.94;5075739;28;1759;-48
2021/05/26 05:54:17;;;;;;;;;;;;;;;21.02;73.54;101022.38;5066503;28;1595;-47
2021/05/26 05:56:59;;;;;;;;;;;;;;;21.13;73.92;101031.28;5067946;28;1406;-47
2021/05/26 05:59:28;;;;;;;;;;;;;;;21.14;75.54;101024.94;5063262;28;1756;-48
2021/05/26 06:01:55;;;;;;;;;;;;;;;21.09;74.45;101032.56;5066907;28;1999;-48
2021/05/26 06:04:31;;;;;;;;;;;;;;;21.00;74.14;101029.75;5064795;28;1516;-48
2021/05/26 06:07:04;;;;;;;;;;;;;;;21.03;75.31;101032.16;5076800;28;1968;-48
2021/05/26 06:09:33;;;;;;;;;;;;;;;21.14;75.77;101020.41;5070949;28;1648;-48
2021/05/26 06:12:03;;;;;;;;;;;;;;;21.09;75.71;101022.69;5069453;28;1548;-47
2021/05/26 06:14:33;;;;;;;;;;;;;;;21.04;74.84;101031.16;5077008;28;1644;-49
2021/05/26 06:17:02;;;;;;;;;;;;;;;21.10;74.32;101031.59;5080997;28;1505;-47
2021/05/26 06:19:31;;;;;;;;;;;;;;;21.05;76.38;101032.03;5058062;28;1533;-48
2021/05/26 06:24:39;;;;;;;;;;;;;;;21.00;74.46;101035.13;5065382;28;2682;-47
2021/05/26 06:29:50;;;;;;;;;;;;;;;21.00;73.90;101035.13;5068219;28;1618;-48
2021/05/26 06:32:18;;;;;;;;;;;;;;;21.03;74.31;101045.59;5073753;28;1375;-48
2021/05/26 06:34:45;;;;;;;;;;;;;;;20.98;74.40;101037.09;5065788;28;1383;-48
2021/05/26 06:37:12;;;;;;;;;;;;;;;21.04;73.56;101031.16;5066819;28;1918;-47
2021/05/26 06:39:38;;;;;;;;;;;;;;;21.05;72.93;101046.31;5071678;28;1968;-47
2021/05/26 06:42:04;;;;;;;;;;;;;;;21.08;73.21;101053.25;5073777;28;1549;-48
2021/05/26 06:44:30;;;;;;;;;;;;;;;21.05;73.26;101037.41;5062710;28;1722;-48
2021/05/26 06:46:57;;;;;;;;;;;;;;;21.09;73.13;101044.19;5069105;28;1906;-49
2021/05/26 06:49:23;;;;;;;;;;;;;;;21.15;72.62;101040.94;5073701;28;2048;-48
2021/05/26 06:51:49;;;;;;;;;;;;;;;21.15;72.97;101040.94;5067675;28;1533;-47
2021/05/26 06:54:15;;;;;;;;;;;;;;;21.15;72.38;101053.50;5066757;28;1651;-48
2021/05/26 06:56:41;;;;;;;;;;;;;;;21.06;73.94;101057.91;5073511;28;1439;-48
2021/05/26 06:59:07;;;;;;;;;;;;;;;21.01;73.75;101060.19;5066221;28;1474;-47
2021/05/26 07:01:33;;;;;;;;;;;;;;;20.99;73.31;101062.16;5071156;28;1563;-49
2021/05/26 07:04:07;;;;;;;;;;;;;;;20.96;73.05;101063.28;5068848;28;1472;-47
2021/05/26 07:06:33;;;;;;;;;;;;;;;21.05;73.17;101059.75;5070748;28;1914;-48
2021/05/26 07:08:59;;;;;;;;;;;;;;;21.11;72.37;101062.84;5080436;28;1533;-47
2021/05/26 07:11:25;;;;;;;;;;;;;;;21.16;72.44;101044.47;5082722;28;1825;-47
2021/05/26 07:13:51;;;;;;;;;;;;;;;21.22;72.74;101043.88;5058733;28;1421;-48
2021/05/26 07:16:17;;;;;;;;;;;;;;;21.23;71.91;101040.22;5081469;28;1772;-47
2021/05/26 07:18:46;;;;;;;;;;;;;;;21.25;72.59;101057.06;5073054;28;2087;-48
2021/05/26 07:21:13;;;;;;;;;;;;;;;21.28;72.83;101043.31;5068305;28;1614;-48
2021/05/26 07:23:39;;;;;;;;;;;;;;;21.27;71.77;101033.56;5072068;28;1495;-47
2021/05/26 07:26:06;;;;;;;;;;;;;;;21.25;73.54;101047.16;5077619;28;1979;-47
2021/05/26 07:28:32;;;;;;;;;;;;;;;21.16;73.61;101045.31;5081139;28;1420;-47
2021/05/26 07:31:01;;;;;;;;;;;;;;;21.21;72.77;101053.81;5064918;28;1712;-47
2021/05/26 07:33:27;;;;;;;;;;;;;;;21.15;72.87;101053.50;5072163;28;1604;-47
2021/05/26 07:35:53;;;;;;;;;;;;;;;21.14;72.60;101057.22;5076472;28;1644;-48
2021/05/26 07:38:19;;;;;;;;;;;;;;;21.11;73.22;101052.97;5070924;28;1839;-48
2021/05/26 07:40:45;;;;;;;;;;;;;;;21.10;73.38;101045.03;5080713;28;1628;-47
2021/05/26 07:45:54;;;;;;;;;;;;;;;21.13;72.57;101044.72;5069686;28;2636;-48
2021/05/26 07:48:20;;;;;;;;;;;;;;;21.14;73.12;101030.31;5075836;28;1378;-47
2021/05/26 07:50:46;;;;;;;;;;;;;;;21.14;72.24;101030.31;5078169;28;1875;-47
2021/05/26 07:53:13;;;;;;;;;;;;;;;21.11;73.16;101035.97;5075154;28;1621;-47
2021/05/26 07:55:40;;;;;;;;;;;;;;;21.11;72.72;101023.38;5067384;28;1439;-48
2021/05/26 07:58:06;;;;;;;;;;;;;;;21.14;72.40;101030.31;5072539;28;1691;-47
2021/05/26 08:00:32;;;;;;;;;;;;;;;21.13;72.42;101024.09;5071817;28;1569;-47
2021/05/26 08:02:58;;;;;;;;;;;;;;;21.12;71.91;101017.00;5071024;28;1540;-48
2021/05/26 08:05:24;;;;;;;;;;;;;;;21.14;72.85;101030.31;5070302;28;1898;-47
2021/05/26 08:07:51;;;;;;;;;;;;;;;21.14;72.29;101030.31;5071537;28;1989;-48
2021/05/26 08:10:17;;;;;;;;;;;;;;;21.15;72.80;101026.63;5065218;28;1445;-47
2021/05/26 08:12:44;;;;;;;;;;;;;;;21.14;72.25;101024.94;5077584;28;1817;-47
2021/05/26 08:15:10;;;;;;;;;;;;;;;21.14;72.77;101039.22;5070383;28;1600;-47
2021/05/26 08:17:37;;;;;;;;;;;;;;;21.10;73.07;101024.38;5074590;28;1423;-47
2021/05/26 08:20:05;;;;;;;;;;;;;;;21.14;73.16;101030.31;5070594;28;1597;-48
2021/05/26 08:22:31;;;;;;;;;;;;;;;21.11;72.25;101020.69;5071048;28;1543;-48
2021/05/26 08:24:57;;;;;;;;;;;;;;;21.11;72.31;101026.06;5075885;28;1514;-47
2021/05/26 08:27:23;;;;;;;;;;;;;;;21.11;72.79;101028.75;5075200;28;1913;-47
2021/05/26 08:29:50;;;;;;;;;;;;;;;21.10;72.13;101018.16;5073626;28;1479;-47
2021/05/26 08:32:16;;;;;;;;;;;;;;;21.10;72.70;101034.28;5074404;28;1554;-48
2021/05/26 08:34:42;;;;;;;;;;;;;;;21.12;72.30;101016.16;5063484;28;1414;-47
2021/05/26 08:37:10;;;;;;;;;;;;;;;21.12;72.87;101029.59;5066880;28;1709;-48
2021/05/26 08:39:36;;;;;;;;;;;;;;;21.09;72.94;101017.31;5073265;28;2269;-48
2021/05/26 08:42:02;;;;;;;;;;;;;;;21.09;73.19;101025.38;5066803;28;1548;-47
2021/05/26 08:44:29;;;;;;;;;;;;;;;21.09;72.53;101022.69;5079749;28;1644;-49
2021/05/26 08:46:56;;;;;;;;;;;;;;;21.09;72.90;101021.81;5070707;28;1909;-48
2021/05/26 08:49:22;;;;;;;;;;;;;;;21.08;72.79;101020.97;5073098;28;1618;-48
2021/05/26 08:51:48;;;;;;;;;;;;;;;21.09;72.47;101021.81;5070189;28;1785;-48
2021/05/26 08:54:15;;;;;;;;;;;;;;;21.08;73.02;101014.75;5073540;28;1525;-48
2021/05/26 08:56:43;;;;;;;;;;;;;;;21.11;71.87;101011.75;5068174;28;1674;-47
2021/05/26 08:59:09;;;;;;;;;;;;;;;21.08;72.13;101014.75;5076803;28;1753;-48
2021/05/26 09:01:35;;;;;;;;;;;;;;;21.09;73.21;101021.81;5073959;28;1664;-49
2021/05/26 09:04:16;;;;;;;;;;;;;;;21.08;72.19;101022.81;5079150;28;1714;-48
2021/05/26 09:06:43;;;;;;;;;;;;;;;21.06;72.18;101015.72;5065889;28;1902;-48
2021/05/26 09:09:09;;;;;;;;;;;;;;;21.10;72.87;101012.78;5076473;28;1430;-47
2021/05/26 09:11:35;;;;;;;;;;;;;;;21.07;73.11;101016.59;5071947;28;1674;-47
2021/05/26 09:14:10;;;;;;;;;;;;;;;21.08;72.96;101014.75;5075333;28;1415;-48
2021/05/26 09:16:36;;;;;;;;;;;;;;;21.09;72.62;101005.69;5076028;28;1454;-47
2021/05/26 09:19:02;;;;;;;;;;;;;;;21.09;72.12;101006.56;5080271;28;1760;-48
2021/05/26 09:21:35;;;;;;;;;;;;;;;21.10;72.44;101007.38;5074965;28;1508;-47
2021/05/26 09:24:22;;;;;;;;;;;;;;;21.09;72.94;101006.56;5081762;28;1532;-48
2021/05/26 09:26:49;;;;;;;;;;;;;;;21.10;72.07;101013.59;5076276;28;1917;-48
2021/05/26 09:29:15;;;;;;;;;;;;;;;21.08;72.16;101020.13;5065144;28;1598;-47
2021/05/26 09:31:41;;;;;;;;;;;;;;;21.10;73.21;101010.09;5071935;28;1609;-47
2021/05/26 09:34:07;;;;;;;;;;;;;;;21.10;73.10;101002.00;5082632;28;1633;-47
2021/05/26 09:36:33;;;;;;;;;;;;;;;21.10;73.06;101008.22;5071184;28;1446;-48
2021/05/26 09:38:59;;;;;;;;;;;;;;;21.03;73.07;101002.59;5078053;28;1511;-47
2021/05/26 09:41:27;;;;;;;;;;;;;;;21.01;72.45;101009.94;5079855;28;1670;-47
2021/05/26 09:43:53;;;;;;;;;;;;;;;21.00;73.30;101008.25;5071107;28;1512;-47
2021/05/26 09:46:20;;;;;;;;;;;;;;;21.00;72.08;100996.66;5079183;28;1905;-47
2021/05/26 09:48:59;;;;;;;;;;;;;;;20.99;73.42;101011.94;5076751;28;1456;-47
2021/05/26 09:51:32;;;;;;;;;;;;;;;21.01;73.22;100999.19;5076288;28;1395;-47
2021/05/26 09:54:23;;;;;;;;;;;;;;;21.04;72.30;101009.66;5070865;28;1743;-47
2021/05/26 09:56:50;;;;;;;;;;;;;;;21.00;73.21;101002.84;5066199;28;2108;-47
2021/05/26 09:59:17;;;;;;;;;;;;;;;21.02;73.09;101010.78;5066278;28;1490;-47
2021/05/26 10:01:43;;;;;;;;;;;;;;;20.99;73.33;101000.31;5074434;28;1750;-47
2021/05/26 10:04:09;;;;;;;;;;;;;;;21.01;73.00;101007.25;5068994;28;1664;-47
2021/05/26 10:06:35;;;;;;;;;;;;;;;21.00;72.99;101005.56;5070697;28;1984;-47
2021/05/26 10:09:01;;;;;;;;;;;;;;;21.01;72.85;101004.56;5069501;28;1410;-48
2021/05/26 10:11:28;;;;;;;;;;;;;;;20.98;73.53;100996.78;5074799;28;1376;-47
2021/05/26 10:14:02;;;;;;;;;;;;;;;20.99;72.76;100997.63;5068032;28;1448;-47
2021/05/26 10:16:32;;;;;;;;;;;;;;;21.16;72.50;100991.53;5067120;28;1686;-47
2021/05/26 10:19:03;;;;;;;;;;;;;;;21.25;72.41;101000.59;5066934;28;1812;-47
2021/05/26 10:21:29;;;;;;;;;;;;;;;21.27;72.68;100985.16;5065739;28;1659;-47
2021/05/26 10:23:56;;;;;;;;;;;;;;;21.16;72.37;100990.69;5067346;28;1628;-47
2021/05/26 10:26:50;;;;;;;;;;;;;;;21.17;73.03;100998.59;5065481;28;1979;-47
2021/05/26 10:29:31;;;;;;;;;;;;;;;21.12;73.50;100998.19;5027095;28;1603;-48
2021/05/26 10:31:58;;;;;;;;;;;;;;;21.16;72.20;100977.22;5064519;28;1454;-47
2021/05/26 10:34:46;;;;;;;;;;;;;;;21.19;72.70;101006.53;5069670;28;1817;-47
2021/05/26 10:37:13;;;;;;;;;;;;;;;21.23;73.24;100991.81;5085616;28;2208;-47
2021/05/26 10:39:39;;;;;;;;;;;;;;;21.20;73.06;100975.94;5070605;28;1569;-47
2021/05/26 10:42:06;;;;;;;;;;;;;;;21.26;74.33;100986.97;5071987;28;1496;-47
2021/05/26 10:44:47;;;;;;;;;;;;;;;21.28;73.90;100992.22;5072473;28;1613;-48
2021/05/26 10:47:28;;;;;;;;;;;;;;;21.26;73.87;100981.59;5081122;28;2000;-49
2021/05/26 10:52:51;;;;;;;;;;;;;;;21.22;74.24;100974.81;5071118;28;2462;-48
2021/05/26 10:55:33;;;;;;;;;;;;;;;21.21;74.07;100961.53;5067139;28;1569;-48
2021/05/26 10:58:20;;;;;;;;;;;;;;;21.20;73.84;100970.56;5067724;28;1758;-48
2021/05/26 11:01:08;;;;;;;;;;;;;;;21.32;74.52;100973.94;4990714;28;1535;-47
2021/05/26 11:03:36;;;;;;;;;;;;;;;21.32;73.80;100964.03;4985411;28;1519;-47
2021/05/26 11:06:34;;;;;;;;;;;;;;;21.27;73.50;100944.78;5046358;28;1582;-46
2021/05/26 11:09:01;;;;;;;;;;;;;;;21.29;74.27;100941.94;5071959;28;1555;-46
2021/05/26 11:12:00;;;;;;;;;;;;;;;21.30;74.54;100951.72;5070872;28;1425;-47
2021/05/26 11:14:30;;;;;;;;;;;;;;;21.25;74.34;100950.31;5064217;28;1803;-48
2021/05/26 11:17:19;;;;;;;;;;;;;;;21.25;74.65;100952.16;5069184;28;1562;-47
2021/05/26 11:19:46;;;;;;;;;;;;;;;21.26;74.23;100948.47;5073751;28;1463;-46
2021/05/26 11:22:18;;;;;;;;;;;;;;;21.29;74.53;100942.81;5066524;28;1263;-46
2021/05/26 11:24:46;;;;;;;;;;;;;;;21.30;74.44;100938.28;5077940;28;1684;-47
2021/05/26 11:27:16;;;;;;;;;;;;;;;21.32;73.55;100931.75;5062541;28;1997;-46
2021/05/26 11:29:47;;;;;;;;;;;;;;;21.28;74.69;100937.56;5064661;28;1933;-47
2021/05/26 11:34:57;;;;;;;;;;;;;;;21.26;75.22;100943.09;5073374;28;2480;-47
2021/05/26 11:37:30;;;;;;;;;;;;;;;21.23;74.30;100922.72;5072035;28;1279;-46
2021/05/26 11:39:57;;;;;;;;;;;;;;;21.30;74.81;100936.41;5071649;28;2040;-47
2021/05/26 11:42:31;;;;;;;;;;;;;;;21.32;74.13;100929.06;5064819;28;1684;-46
2021/05/26 11:45:00;;;;;;;;;;;;;;;21.30;74.30;100930.19;5067091;28;1534;-47
2021/05/26 11:47:33;;;;;;;;;;;;;;;21.21;74.51;100919.34;5062830;28;1906;-47
2021/05/26 11:50:01;;;;;;;;;;;;;;;21.19;75.23;100926.69;5071657;28;1620;-47
2021/05/26 11:52:29;;;;;;;;;;;;;;;21.19;75.64;100910.56;5072832;28;1598;-48
2021/05/26 11:54:56;;;;;;;;;;;;;;;21.31;74.06;100905.84;5070247;28;1637;-47
2021/05/26 11:57:31;;;;;;;;;;;;;;;21.35;74.28;100917.16;5065185;28;1665;-47
2021/05/26 11:59:59;;;;;;;;;;;;;;;21.34;74.20;100916.31;5064882;28;1643;-47
2021/05/26 12:02:25;;;;;;;;;;;;;;;21.31;74.17;100905.84;5069103;28;1655;-47
2021/05/26 12:04:51;;;;;;;;;;;;;;;21.24;74.80;100913.66;5060445;28;1474;-47
2021/05/26 12:07:22;;;;;;;;;;;;;;;21.20;74.68;100904.16;5072648;28;1913;-47
2021/05/26 12:09:59;;;;;;;;;;;;;;;21.18;74.23;100900.78;5062270;28;1824;-46
2021/05/26 12:12:25;;;;;;;;;;;;;;;21.18;74.24;100881.13;5067633;28;1702;-46
2021/05/26 12:15:05;;;;;;;;;;;;;;;21.17;75.23;100903.63;5074138;28;1574;-47
2021/05/26 12:17:36;;;;;;;;;;;;;;;21.18;74.81;100902.63;5064615;28;1493;-46
2021/05/26 12:20:05;;;;;;;;;;;;;;;21.21;74.01;100905.88;5068789;28;1369;-47
2021/05/26 12:22:45;;;;;;;;;;;;;;;21.29;74.23;100898.91;5060224;28;1505;-47
2021/05/26 12:25:18;;;;;;;;;;;;;;;21.35;73.98;100898.34;5068935;28;1492;-48
2021/05/26 12:27:46;;;;;;;;;;;;;;;21.34;73.46;100885.88;5059787;28;1976;-47
2021/05/26 12:30:22;;;;;;;;;;;;;;;21.35;73.45;100891.09;5061483;28;1662;-46
2021/05/26 12:32:50;;;;;;;;;;;;;;;21.38;73.81;100871.97;5064829;28;1821;-46
2021/05/26 12:35:18;;;;;;;;;;;;;;;21.45;73.31;100889.25;5067581;28;1696;-47
2021/05/26 12:37:46;;;;;;;;;;;;;;;21.44;73.29;100874.09;5067650;28;1591;-47
2021/05/26 12:40:36;;;;;;;;;;;;;;;21.42;73.41;100884.13;5077284;28;1490;-47
2021/05/26 12:43:21;;;;;;;;;;;;;;;21.46;73.16;100852.44;5057495;28;2406;-47
2021/05/26 12:45:48;;;;;;;;;;;;;;;21.51;74.18;100865.44;5061394;28;1723;-46
2021/05/26 12:48:15;;;;;;;;;;;;;;;21.47;73.55;100864.91;5058853;28;1992;-47
2021/05/26 12:50:42;;;;;;;;;;;;;;;21.47;75.41;100870.28;5075232;28;1983;-47
2021/05/26 12:53:09;;;;;;;;;;;;;;;21.47;76.41;100858.66;5081333;28;1659;-47
2021/05/26 12:55:35;;;;;;;;;;;;;;;21.42;76.19;100845.63;5075318;28;1494;-47
2021/05/26 12:58:02;;;;;;;;;;;;;;;21.41;78.21;100855.53;5065324;28;1338;-47
2021/05/26 13:00:33;;;;;;;;;;;;;;;21.36;78.12;100855.13;5061397;28;1505;-47
2021/05/26 13:03:07;;;;;;;;;;;;;;;21.38;78.04;100841.53;5076151;28;1553;-47
2021/05/26 13:05:38;;;;;;;;;;;;;;;21.40;76.70;100828.78;5063490;28;1874;-47
2021/05/26 13:08:07;;;;;;;;;;;;;;;21.38;78.32;100844.22;5062064;28;1987;-47
2021/05/26 13:10:35;;;;;;;;;;;;;;;21.33;78.37;100838.44;5060852;28;1417;-49
2021/05/26 13:13:15;;;;;;;;;;;;;;;21.27;78.91;100834.53;5064469;28;1413;-47
2021/05/26 13:15:43;;;;;;;;;;;;;;;21.14;79.90;100834.84;5070274;28;1483;-48
2021/05/26 13:18:09;;;;;;;;;;;;;;;21.16;80.73;100832.00;5063764;28;1495;-47
2021/05/26 13:20:37;;;;;;;;;;;;;;;21.14;79.66;100826.78;5062527;28;1587;-46
2021/05/26 13:23:04;;;;;;;;;;;;;;;21.08;80.16;100826.53;5071345;28;1347;-48
2021/05/26 13:25:32;;;;;;;;;;;;;;;21.08;79.51;100831.91;5066560;28;1750;-46